sensor_id;sensor_type;location;lat;lon;timestamp;pressure;altitude;pressure_sealevel;temperature;humidity
50933;BME280;36921;49.006;9.292;2023-02-28T00:00:42;99551.25;;;-3.18;100.00
50933;BME280;36921;49.006;9.292;2023-02-28T00:03:08;99559.97;;;-3.16;100.00
50933;BME280;36921;49.006;9.292;2023-02-28T00:05:33;99544.22;;;-3.32;100.00
50933;BME280;36921;49.006;9.292;2023-02-28T00:07:59;99561.75;;;-3.17;100.00
50933;BME280;36921;49.006;9.292;2023-02-28T00:10:26;99557.69;;;-3.22;100.00
50933;BME280;36921;49.006;9.292;2023-02-28T00:12:54;99543.44;;;-3.34;100.00
50933;BME280;36921;49.006;9.292;2023-02-28T00:15:21;99552.50;;;-3.24;100.00
50933;BME280;36921;49.006;9.292;2023-02-28T00:17:48;99539.00;;;-3.34;100.00
50933;BME280;36921;49.006;9.292;2023-02-28T00:20:13;99555.03;;;-3.22;100.00
50933;BME280;36921;49.006;9.292;2023-02-28T00:22:49;99549.75;;;-3.22;100.00
50933;BME280;36921;49.006;9.292;2023-02-28T00:25:19;99553.34;;;-3.09;100.00
50933;BME280;36921;49.006;9.292;2023-02-28T00:27:45;99546.53;;;-3.13;100.00
50933;BME280;36921;49.006;9.292;2023-02-28T00:30:14;99550.47;;;-3.06;100.00
50933;BME280;36921;49.006;9.292;2023-02-28T00:32:40;99529.63;;;-3.25;100.00
50933;BME280;36921;49.006;9.292;2023-02-28T00:35:06;99548.41;;;-3.15;100.00
50933;BME280;36921;49.006;9.292;2023-02-28T00:37:32;99537.94;;;-3.17;100.00
50933;BME280;36921;49.006;9.292;2023-02-28T00:39:57;99545.91;;;-3.04;100.00
50933;BME280;36921;49.006;9.292;2023-02-28T00:42:23;99548.75;;;-3.07;100.00
50933;BME280;36921;49.006;9.292;2023-02-28T00:44:49;99547.47;;;-3.14;100.00
50933;BME280;36921;49.006;9.292;2023-02-28T00:47:14;99539.16;;;-3.22;100.00
50933;BME280;36921;49.006;9.292;2023-02-28T00:49:39;99543.88;;;-3.13;100.00
50933;BME280;36921;49.006;9.292;2023-02-28T00:52:05;99554.25;;;-3.10;100.00
50933;BME280;36921;49.006;9.292;2023-02-28T00:54:30;99523.75;;;-3.16;100.00
50933;BME280;36921;49.006;9.292;2023-02-28T00:56:55;99544.06;;;-3.16;100.00
50933;BME280;36921;49.006;9.292;2023-02-28T00:59:21;99544.44;;;-3.22;100.00
50933;BME280;36921;49.006;9.292;2023-02-28T01:01:46;99524.28;;;-3.38;100.00
50933;BME280;36921;49.006;9.292;2023-02-28T01:04:13;99544.91;;;-3.16;100.00
50933;BME280;36921;49.006;9.292;2023-02-28T01:06:39;99541.44;;;-3.16;100.00
50933;BME280;36921;49.006;9.292;2023-02-28T01:09:05;99532.31;;;-3.12;100.00
50933;BME280;36921;49.006;9.292;2023-02-28T01:11:31;99531.22;;;-3.22;100.00
50933;BME280;36921;49.006;9.292;2023-02-28T01:13:57;99511.97;;;-3.39;100.00
50933;BME280;36921;49.006;9.292;2023-02-28T01:16:23;99529.09;;;-3.30;100.00
50933;BME280;36921;49.006;9.292;2023-02-28T01:18:48;99536.34;;;-3.34;100.00
50933;BME280;36921;49.006;9.292;2023-02-28T01:21:16;99526.19;;;-3.54;100.00
50933;BME280;36921;49.006;9.292;2023-02-28T01:23:42;99539.47;;;-3.41;100.00
50933;BME280;36921;49.006;9.292;2023-02-28T01:26:11;99526.00;;;-3.51;100.00
50933;BME280;36921;49.006;9.292;2023-02-28T01:28:37;99516.56;;;-3.55;100.00
50933;BME280;36921;49.006;9.292;2023-02-28T01:31:02;99532.59;;;-3.44;100.00
50933;BME280;36921;49.006;9.292;2023-02-28T01:33:27;99509.06;;;-3.48;100.00
50933;BME280;36921;49.006;9.292;2023-02-28T01:36:04;99520.53;;;-3.48;100.00
50933;BME280;36921;49.006;9.292;2023-02-28T01:38:30;99517.97;;;-3.49;100.00
50933;BME280;36921;49.006;9.292;2023-02-28T01:40:56;99522.97;;;-3.45;100.00
50933;BME280;36921;49.006;9.292;2023-02-28T01:43:26;99529.00;;;-3.43;100.00
50933;BME280;36921;49.006;9.292;2023-02-28T01:45:53;99517.88;;;-3.48;100.00
50933;BME280;36921;49.006;9.292;2023-02-28T01:48:19;99525.69;;;-3.46;100.00
50933;BME280;36921;49.006;9.292;2023-02-28T01:50:46;99514.00;;;-3.57;100.00
50933;BME280;36921;49.006;9.292;2023-02-28T01:53:16;99520.72;;;-3.51;100.00
50933;BME280;36921;49.006;9.292;2023-02-28T01:55:46;99522.88;;;-3.58;100.00
50933;BME280;36921;49.006;9.292;2023-02-28T01:58:12;99504.00;;;-3.66;100.00
50933;BME280;36921;49.006;9.292;2023-02-28T02:00:37;99504.66;;;-3.62;100.00
50933;BME280;36921;49.006;9.292;2023-02-28T02:03:08;99512.78;;;-3.51;100.00
50933;BME280;36921;49.006;9.292;2023-02-28T02:05:37;99522.97;;;-3.45;100.00
50933;BME280;36921;49.006;9.292;2023-02-28T02:08:07;99515.78;;;-3.43;100.00
50933;BME280;36921;49.006;9.292;2023-02-28T02:10:36;99507.09;;;-3.45;100.00
50933;BME280;36921;49.006;9.292;2023-02-28T02:16:16;99506.31;;;-3.33;100.00
50933;BME280;36921;49.006;9.292;2023-02-28T02:18:46;99509.13;;;-3.36;100.00
50933;BME280;36921;49.006;9.292;2023-02-28T02:27:33;99506.91;;;-3.42;100.00
50933;BME280;36921;49.006;9.292;2023-02-28T02:30:39;99490.81;;;-3.39;100.00
50933;BME280;36921;49.006;9.292;2023-02-28T02:38:48;99496.47;;;-3.31;100.00
50933;BME280;36921;49.006;9.292;2023-02-28T02:41:38;99508.56;;;-3.26;100.00
50933;BME280;36921;49.006;9.292;2023-02-28T02:44:15;99498.75;;;-3.24;100.00
50933;BME280;36921;49.006;9.292;2023-02-28T02:46:44;99502.22;;;-3.24;100.00
50933;BME280;36921;49.006;9.292;2023-02-28T02:49:16;99486.44;;;-3.25;100.00
50933;BME280;36921;49.006;9.292;2023-02-28T02:51:46;99487.03;;;-3.35;100.00
50933;BME280;36921;49.006;9.292;2023-02-28T02:54:33;99504.75;;;-3.22;100.00
50933;BME280;36921;49.006;9.292;2023-02-28T02:57:04;99487.94;;;-3.21;100.00
50933;BME280;36921;49.006;9.292;2023-02-28T02:59:31;99496.53;;;-3.18;100.00
50933;BME280;36921;49.006;9.292;2023-02-28T03:02:01;99498.13;;;-3.15;100.00
50933;BME280;36921;49.006;9.292;2023-02-28T03:04:34;99488.00;;;-3.09;100.00
50933;BME280;36921;49.006;9.292;2023-02-28T03:07:00;99498.09;;;-3.01;100.00
50933;BME280;36921;49.006;9.292;2023-02-28T03:09:26;99488.34;;;-3.00;100.00
50933;BME280;36921;49.006;9.292;2023-02-28T03:11:54;99486.03;;;-2.92;100.00
50933;BME280;36921;49.006;9.292;2023-02-28T03:17:40;99497.44;;;-2.77;100.00
50933;BME280;36921;49.006;9.292;2023-02-28T03:23:19;99462.47;;;-2.82;100.00
50933;BME280;36921;49.006;9.292;2023-02-28T03:25:51;99484.09;;;-2.63;100.00
50933;BME280;36921;49.006;9.292;2023-02-28T03:28:41;99491.13;;;-2.62;100.00
50933;BME280;36921;49.006;9.292;2023-02-28T03:31:17;99486.44;;;-2.58;100.00
50933;BME280;36921;49.006;9.292;2023-02-28T03:33:49;99486.78;;;-2.50;100.00
50933;BME280;36921;49.006;9.292;2023-02-28T03:36:24;99485.19;;;-2.53;100.00
50933;BME280;36921;49.006;9.292;2023-02-28T03:39:07;99483.16;;;-2.49;100.00
50933;BME280;36921;49.006;9.292;2023-02-28T03:41:42;99479.03;;;-2.53;100.00
50933;BME280;36921;49.006;9.292;2023-02-28T03:44:16;99493.34;;;-2.43;100.00
50933;BME280;36921;49.006;9.292;2023-02-28T03:46:48;99485.50;;;-2.45;100.00
50933;BME280;36921;49.006;9.292;2023-02-28T03:49:23;99496.56;;;-2.38;100.00
50933;BME280;36921;49.006;9.292;2023-02-28T03:51:50;99491.97;;;-2.49;100.00
50933;BME280;36921;49.006;9.292;2023-02-28T03:54:19;99487.63;;;-2.50;100.00
50933;BME280;36921;49.006;9.292;2023-02-28T03:56:55;99477.84;;;-2.49;100.00
50933;BME280;36921;49.006;9.292;2023-02-28T03:59:28;99494.84;;;-2.26;100.00
50933;BME280;36921;49.006;9.292;2023-02-28T04:01:54;99476.63;;;-2.44;100.00
50933;BME280;36921;49.006;9.292;2023-02-28T04:04:20;99497.41;;;-2.25;100.00
50933;BME280;36921;49.006;9.292;2023-02-28T04:06:50;99491.97;;;-2.23;100.00
50933;BME280;36921;49.006;9.292;2023-02-28T04:09:34;99495.16;;;-2.18;100.00
50933;BME280;36921;49.006;9.292;2023-02-28T04:11:59;99496.88;;;-2.17;100.00
50933;BME280;36921;49.006;9.292;2023-02-28T04:14:25;99498.56;;;-2.16;100.00
50933;BME280;36921;49.006;9.292;2023-02-28T04:16:51;99487.44;;;-2.21;100.00
50933;BME280;36921;49.006;9.292;2023-02-28T04:19:17;99475.34;;;-2.25;100.00
50933;BME280;36921;49.006;9.292;2023-02-28T04:21:49;99491.66;;;-2.18;100.00
50933;BME280;36921;49.006;9.292;2023-02-28T04:24:17;99479.47;;;-2.21;100.00
50933;BME280;36921;49.006;9.292;2023-02-28T04:26:46;99479.47;;;-2.21;100.00
50933;BME280;36921;49.006;9.292;2023-02-28T04:29:13;99505.16;;;-2.09;100.00
50933;BME280;36921;49.006;9.292;2023-02-28T04:31:39;99500.91;;;-2.11;100.00
50933;BME280;36921;49.006;9.292;2023-02-28T04:34:05;99505.78;;;-2.05;100.00
50933;BME280;36921;49.006;9.292;2023-02-28T04:36:30;99499.19;;;-2.00;100.00
50933;BME280;36921;49.006;9.292;2023-02-28T04:38:56;99513.41;;;-2.01;100.00
50933;BME280;36921;49.006;9.292;2023-02-28T04:41:22;99470.59;;;-2.20;100.00
50933;BME280;36921;49.006;9.292;2023-02-28T04:43:48;99480.31;;;-2.08;100.00
50933;BME280;36921;49.006;9.292;2023-02-28T04:46:13;99492.44;;;-2.04;100.00
50933;BME280;36921;49.006;9.292;2023-02-28T04:48:39;99497.28;;;-1.98;100.00
50933;BME280;36921;49.006;9.292;2023-02-28T04:51:07;99504.09;;;-1.93;100.00
50933;BME280;36921;49.006;9.292;2023-02-28T04:53:33;99501.31;;;-1.92;100.00
50933;BME280;36921;49.006;9.292;2023-02-28T04:55:59;99497.28;;;-1.98;100.00
50933;BME280;36921;49.006;9.292;2023-02-28T04:58:25;99480.00;;;-2.03;100.00
50933;BME280;36921;49.006;9.292;2023-02-28T05:00:51;99503.03;;;-1.91;100.00
50933;BME280;36921;49.006;9.292;2023-02-28T05:03:17;99494.53;;;-1.96;100.00
50933;BME280;36921;49.006;9.292;2023-02-28T05:05:42;99482.88;;;-1.93;100.00
50933;BME280;36921;49.006;9.292;2023-02-28T05:08:07;99486.47;;;-1.94;100.00
50933;BME280;36921;49.006;9.292;2023-02-28T05:10:34;99493.47;;;-1.93;100.00
50933;BME280;36921;49.006;9.292;2023-02-28T05:13:00;99484.78;;;-1.95;100.00
50933;BME280;36921;49.006;9.292;2023-02-28T05:15:25;99500.69;;;-1.95;100.00
50933;BME280;36921;49.006;9.292;2023-02-28T05:17:51;99504.50;;;-1.87;100.00
50933;BME280;36921;49.006;9.292;2023-02-28T05:20:16;99481.81;;;-2.04;100.00
50933;BME280;36921;49.006;9.292;2023-02-28T05:22:43;99501.00;;;-1.87;100.00
50933;BME280;36921;49.006;9.292;2023-02-28T05:25:13;99507.28;;;-1.88;100.00
50933;BME280;36921;49.006;9.292;2023-02-28T05:27:40;99488.72;;;-2.01;100.00
50933;BME280;36921;49.006;9.292;2023-02-28T05:30:08;99500.25;;;-1.89;100.00
50933;BME280;36921;49.006;9.292;2023-02-28T05:32:36;99501.09;;;-1.89;100.00
50933;BME280;36921;49.006;9.292;2023-02-28T05:35:02;99498.34;;;-1.87;100.00
50933;BME280;36921;49.006;9.292;2023-02-28T05:37:27;99511.16;;;-1.81;100.00
50933;BME280;36921;49.006;9.292;2023-02-28T05:39:52;99507.28;;;-1.88;100.00
50933;BME280;36921;49.006;9.292;2023-02-28T05:42:18;99486.91;;;-2.01;100.00
50933;BME280;36921;49.006;9.292;2023-02-28T05:44:43;99495.16;;;-1.92;100.00
50933;BME280;36921;49.006;9.292;2023-02-28T05:47:08;99508.88;;;-1.86;100.00
50933;BME280;36921;49.006;9.292;2023-02-28T05:49:34;99507.59;;;-1.93;100.00
50933;BME280;36921;49.006;9.292;2023-02-28T05:51:59;99505.25;;;-1.85;100.00
50933;BME280;36921;49.006;9.292;2023-02-28T05:54:24;99507.28;;;-1.88;100.00
50933;BME280;36921;49.006;9.292;2023-02-28T05:56:50;99526.56;;;-1.86;100.00
50933;BME280;36921;49.006;9.292;2023-02-28T05:59:15;99512.44;;;-1.87;100.00
50933;BME280;36921;49.006;9.292;2023-02-28T06:01:42;99516.59;;;-1.83;100.00
50933;BME280;36921;49.006;9.292;2023-02-28T06:04:13;99527.84;;;-1.79;100.00
50933;BME280;36921;49.006;9.292;2023-02-28T06:06:46;99528.59;;;-1.77;100.00
50933;BME280;36921;49.006;9.292;2023-02-28T06:09:11;99534.19;;;-1.82;100.00
50933;BME280;36921;49.006;9.292;2023-02-28T06:11:37;99520.19;;;-1.84;100.00
50933;BME280;36921;49.006;9.292;2023-02-28T06:14:03;99517.44;;;-1.82;100.00
50933;BME280;36921;49.006;9.292;2023-02-28T06:16:31;99539.94;;;-1.75;100.00
50933;BME280;36921;49.006;9.292;2023-02-28T06:18:58;99542.28;;;-1.83;100.00
50933;BME280;36921;49.006;9.292;2023-02-28T06:21:24;99529.13;;;-1.85;100.00
50933;BME280;36921;49.006;9.292;2023-02-28T06:23:49;99542.47;;;-1.86;100.00
50933;BME280;36921;49.006;9.292;2023-02-28T06:26:15;99530.41;;;-1.90;100.00
50933;BME280;36921;49.006;9.292;2023-02-28T06:28:40;99525.94;;;-1.90;100.00
50933;BME280;36921;49.006;9.292;2023-02-28T06:31:11;99545.66;;;-1.81;100.00
50933;BME280;36921;49.006;9.292;2023-02-28T06:33:38;99524.66;;;-1.84;100.00
50933;BME280;36921;49.006;9.292;2023-02-28T06:36:04;99544.81;;;-1.69;100.00
50933;BME280;36921;49.006;9.292;2023-02-28T06:38:31;99539.28;;;-1.66;100.00
50933;BME280;36921;49.006;9.292;2023-02-28T06:40:58;99543.09;;;-1.57;100.00
50933;BME280;36921;49.006;9.292;2023-02-28T06:43:24;99550.09;;;-1.56;100.00
50933;BME280;36921;49.006;9.292;2023-02-28T06:45:50;99551.91;;;-1.44;100.00
50933;BME280;36921;49.006;9.292;2023-02-28T06:48:15;99558.47;;;-1.49;100.00
50933;BME280;36921;49.006;9.292;2023-02-28T06:50:40;99558.16;;;-1.45;100.00
50933;BME280;36921;49.006;9.292;2023-02-28T06:53:06;99546.25;;;-1.39;100.00
50933;BME280;36921;49.006;9.292;2023-02-28T06:55:31;99564.19;;;-1.30;100.00
50933;BME280;36921;49.006;9.292;2023-02-28T06:57:57;99549.63;;;-1.37;100.00
50933;BME280;36921;49.006;9.292;2023-02-28T07:00:23;99557.28;;;-1.33;100.00
50933;BME280;36921;49.006;9.292;2023-02-28T07:02:50;99557.06;;;-1.29;100.00
50933;BME280;36921;49.006;9.292;2023-02-28T07:05:15;99547.28;;;-1.29;100.00
50933;BME280;36921;49.006;9.292;2023-02-28T07:07:40;99574.22;;;-1.09;100.00
50933;BME280;36921;49.006;9.292;2023-02-28T07:10:10;99574.75;;;-1.04;100.00
50933;BME280;36921;49.006;9.292;2023-02-28T07:12:37;99550.38;;;-0.98;100.00
50933;BME280;36921;49.006;9.292;2023-02-28T07:15:04;99566.66;;;-0.79;100.00
50933;BME280;36921;49.006;9.292;2023-02-28T07:17:29;99568.19;;;-0.63;100.00
50933;BME280;36921;49.006;9.292;2023-02-28T07:19:55;99550.69;;;-0.66;100.00
50933;BME280;36921;49.006;9.292;2023-02-28T07:22:20;99565.66;;;-0.41;100.00
50933;BME280;36921;49.006;9.292;2023-02-28T07:24:45;99569.25;;;-0.42;100.00
50933;BME280;36921;49.006;9.292;2023-02-28T07:27:10;99565.72;;;-0.18;100.00
50933;BME280;36921;49.006;9.292;2023-02-28T07:29:36;99581.91;;;0.25;100.00
50933;BME280;36921;49.006;9.292;2023-02-28T07:32:02;99572.97;;;0.82;100.00
50933;BME280;36921;49.006;9.292;2023-02-28T07:34:27;99580.13;;;0.71;100.00
50933;BME280;36921;49.006;9.292;2023-02-28T07:36:53;99578.69;;;0.67;100.00
50933;BME280;36921;49.006;9.292;2023-02-28T07:39:19;99568.00;;;0.44;100.00
50933;BME280;36921;49.006;9.292;2023-02-28T07:41:45;99588.97;;;0.49;100.00
50933;BME280;36921;49.006;9.292;2023-02-28T07:44:10;99584.25;;;0.97;100.00
50933;BME280;36921;49.006;9.292;2023-02-28T07:46:36;99571.72;;;1.85;100.00
50933;BME280;36921;49.006;9.292;2023-02-28T07:49:01;99588.59;;;2.27;100.00
50933;BME280;36921;49.006;9.292;2023-02-28T07:51:29;99588.19;;;2.53;100.00
50933;BME280;36921;49.006;9.292;2023-02-28T07:53:55;99586.97;;;2.97;100.00
50933;BME280;36921;49.006;9.292;2023-02-28T07:56:20;99596.38;;;4.00;92.44
50933;BME280;36921;49.006;9.292;2023-02-28T07:58:46;99582.63;;;4.61;84.85
50933;BME280;36921;49.006;9.292;2023-02-28T08:01:11;99575.69;;;3.92;80.77
50933;BME280;36921;49.006;9.292;2023-02-28T08:03:37;99576.50;;;4.22;81.12
50933;BME280;36921;49.006;9.292;2023-02-28T08:06:04;99581.72;;;4.24;81.55
50933;BME280;36921;49.006;9.292;2023-02-28T08:08:30;99551.72;;;3.42;80.78
50933;BME280;36921;49.006;9.292;2023-02-28T08:10:59;99573.31;;;3.70;81.47
50933;BME280;36921;49.006;9.292;2023-02-28T08:13:25;99567.19;;;4.16;81.06
50933;BME280;36921;49.006;9.292;2023-02-28T08:15:52;99579.41;;;4.86;76.10
50933;BME280;36921;49.006;9.292;2023-02-28T08:18:18;99568.84;;;4.84;74.22
50933;BME280;36921;49.006;9.292;2023-02-28T08:20:44;99569.91;;;5.46;70.50
50933;BME280;36921;49.006;9.292;2023-02-28T08:23:09;99569.25;;;7.61;65.38
50933;BME280;36921;49.006;9.292;2023-02-28T08:25:34;99558.19;;;7.89;61.02
50933;BME280;36921;49.006;9.292;2023-02-28T08:28:00;99560.00;;;9.10;57.38
50933;BME280;36921;49.006;9.292;2023-02-28T08:30:32;99512.63;;;9.38;54.50
50933;BME280;36921;49.006;9.292;2023-02-28T08:32:57;99572.03;;;11.28;50.71
50933;BME280;36921;49.006;9.292;2023-02-28T08:35:23;99540.94;;;11.96;47.96
50933;BME280;36921;49.006;9.292;2023-02-28T08:37:49;99522.19;;;12.01;46.89
50933;BME280;36921;49.006;9.292;2023-02-28T08:40:15;99561.22;;;11.64;45.24
50933;BME280;36921;49.006;9.292;2023-02-28T08:42:46;99550.06;;;12.38;45.19
50933;BME280;36921;49.006;9.292;2023-02-28T08:45:12;99570.38;;;13.53;43.61
50933;BME280;36921;49.006;9.292;2023-02-28T08:47:38;99542.22;;;13.74;42.03
50933;BME280;36921;49.006;9.292;2023-02-28T08:50:05;99563.19;;;13.94;41.69
50933;BME280;36921;49.006;9.292;2023-02-28T08:52:30;99559.00;;;14.24;40.98
50933;BME280;36921;49.006;9.292;2023-02-28T08:54:55;99553.81;;;15.34;39.09
50933;BME280;36921;49.006;9.292;2023-02-28T08:57:21;99557.47;;;15.15;38.92
50933;BME280;36921;49.006;9.292;2023-02-28T08:59:46;99559.38;;;12.85;40.12
50933;BME280;36921;49.006;9.292;2023-02-28T09:02:14;99571.00;;;13.49;40.14
50933;BME280;36921;49.006;9.292;2023-02-28T09:04:40;99561.06;;;13.82;39.82
50933;BME280;36921;49.006;9.292;2023-02-28T09:07:06;99546.88;;;14.67;39.22
50933;BME280;36921;49.006;9.292;2023-02-28T09:09:32;99562.66;;;15.82;38.14
50933;BME280;36921;49.006;9.292;2023-02-28T09:11:59;99561.69;;;15.69;37.12
50933;BME280;36921;49.006;9.292;2023-02-28T09:14:24;99554.84;;;14.15;37.33
50933;BME280;36921;49.006;9.292;2023-02-28T09:16:49;99564.88;;;14.21;38.18
50933;BME280;36921;49.006;9.292;2023-02-28T09:19:15;99562.84;;;14.57;38.24
50933;BME280;36921;49.006;9.292;2023-02-28T09:21:40;99553.41;;;14.59;37.95
50933;BME280;36921;49.006;9.292;2023-02-28T09:24:07;99539.56;;;13.33;38.43
50933;BME280;36921;49.006;9.292;2023-02-28T09:26:32;99561.53;;;14.39;38.70
50933;BME280;36921;49.006;9.292;2023-02-28T09:28:59;99564.34;;;13.65;38.44
50933;BME280;36921;49.006;9.292;2023-02-28T09:31:26;99564.25;;;13.38;38.36
50933;BME280;36921;49.006;9.292;2023-02-28T09:33:55;99557.03;;;11.83;40.84
50933;BME280;36921;49.006;9.292;2023-02-28T09:36:22;99586.63;;;10.29;43.51
50933;BME280;36921;49.006;9.292;2023-02-28T09:38:47;99544.53;;;8.95;45.14
50933;BME280;36921;49.006;9.292;2023-02-28T09:41:21;99577.28;;;8.92;45.68
50933;BME280;36921;49.006;9.292;2023-02-28T09:43:53;99578.03;;;7.96;47.85
50933;BME280;36921;49.006;9.292;2023-02-28T09:46:39;99550.09;;;7.97;48.65
50933;BME280;36921;49.006;9.292;2023-02-28T09:49:22;99572.06;;;6.93;51.01
50933;BME280;36921;49.006;9.292;2023-02-28T09:51:55;99590.50;;;7.81;50.37
50933;BME280;36921;49.006;9.292;2023-02-28T09:54:23;99579.38;;;8.17;49.54
50933;BME280;36921;49.006;9.292;2023-02-28T09:56:54;99565.06;;;7.08;50.71
50933;BME280;36921;49.006;9.292;2023-02-28T09:59:25;99600.84;;;7.00;51.59
50933;BME280;36921;49.006;9.292;2023-02-28T10:02:08;99576.53;;;6.76;51.95
50933;BME280;36921;49.006;9.292;2023-02-28T10:04:55;99572.97;;;6.75;52.22
50933;BME280;36921;49.006;9.292;2023-02-28T10:07:38;99587.41;;;6.22;53.22
50933;BME280;36921;49.006;9.292;2023-02-28T10:10:17;99562.13;;;7.44;51.14
50933;BME280;36921;49.006;9.292;2023-02-28T10:12:46;99574.59;;;8.84;48.96
50933;BME280;36921;49.006;9.292;2023-02-28T10:15:16;99576.03;;;7.98;49.30
50933;BME280;36921;49.006;9.292;2023-02-28T10:17:44;99582.72;;;7.61;50.82
50933;BME280;36921;49.006;9.292;2023-02-28T10:20:14;99580.31;;;8.89;49.00
50933;BME280;36921;49.006;9.292;2023-02-28T10:25:22;99585.28;;;9.79;45.64
50933;BME280;36921;49.006;9.292;2023-02-28T10:27:50;99580.19;;;10.30;45.58
50933;BME280;36921;49.006;9.292;2023-02-28T10:30:18;99595.19;;;10.56;45.45
50933;BME280;36921;49.006;9.292;2023-02-28T10:32:49;99587.13;;;12.53;41.78
50933;BME280;36921;49.006;9.292;2023-02-28T10:35:21;99569.00;;;13.77;39.95
50933;BME280;36921;49.006;9.292;2023-02-28T10:37:49;99568.44;;;14.15;38.29
50933;BME280;36921;49.006;9.292;2023-02-28T10:45:19;99584.91;;;16.67;35.00
50933;BME280;36921;49.006;9.292;2023-02-28T10:47:57;99578.53;;;16.23;34.91
50933;BME280;36921;49.006;9.292;2023-02-28T10:53:07;99578.16;;;15.29;36.22
50933;BME280;36921;49.006;9.292;2023-02-28T10:55:35;99589.09;;;11.94;39.67
50933;BME280;36921;49.006;9.292;2023-02-28T10:58:01;99590.06;;;10.61;41.62
50933;BME280;36921;49.006;9.292;2023-02-28T11:00:33;99598.47;;;9.82;43.85
50933;BME280;36921;49.006;9.292;2023-02-28T11:02:59;99597.13;;;10.01;44.62
50933;BME280;36921;49.006;9.292;2023-02-28T11:05:35;99575.28;;;11.53;42.64
50933;BME280;36921;49.006;9.292;2023-02-28T11:08:13;99564.13;;;11.84;40.73
50933;BME280;36921;49.006;9.292;2023-02-28T11:10:45;99562.06;;;12.50;40.24
50933;BME280;36921;49.006;9.292;2023-02-28T11:13:21;99568.69;;;14.60;38.74
50933;BME280;36921;49.006;9.292;2023-02-28T11:15:57;99553.91;;;16.55;36.05
50933;BME280;36921;49.006;9.292;2023-02-28T11:18:41;99538.91;;;17.26;34.28
50933;BME280;36921;49.006;9.292;2023-02-28T11:21:08;99563.47;;;13.51;37.52
50933;BME280;36921;49.006;9.292;2023-02-28T11:23:36;99559.47;;;10.75;40.81
50933;BME280;36921;49.006;9.292;2023-02-28T11:26:04;99585.50;;;10.01;43.09
50933;BME280;36921;49.006;9.292;2023-02-28T11:28:38;99572.03;;;9.70;44.99
50933;BME280;36921;49.006;9.292;2023-02-28T11:36:22;99544.81;;;14.36;39.14
50933;BME280;36921;49.006;9.292;2023-02-28T11:38:54;99523.34;;;15.89;36.59
50933;BME280;36921;49.006;9.292;2023-02-28T11:41:28;99534.88;;;15.91;36.15
50933;BME280;36921;49.006;9.292;2023-02-28T11:44:06;99548.25;;;13.63;37.90
50933;BME280;36921;49.006;9.292;2023-02-28T11:46:43;99535.56;;;14.03;38.93
50933;BME280;36921;49.006;9.292;2023-02-28T11:52:02;99551.59;;;11.98;40.31
50933;BME280;36921;49.006;9.292;2023-02-28T11:54:59;99540.63;;;10.82;41.69
50933;BME280;36921;49.006;9.292;2023-02-28T11:57:39;99556.53;;;10.09;43.94
50933;BME280;36921;49.006;9.292;2023-02-28T12:05:41;99524.34;;;12.97;41.00
50933;BME280;36921;49.006;9.292;2023-02-28T12:08:26;99532.22;;;14.61;38.00
50933;BME280;36921;49.006;9.292;2023-02-28T12:11:09;99532.06;;;16.05;36.90
50933;BME280;36921;49.006;9.292;2023-02-28T12:19:01;99529.09;;;13.30;38.67
50933;BME280;36921;49.006;9.292;2023-02-28T12:27:11;99515.94;;;16.72;35.50
50933;BME280;36921;49.006;9.292;2023-02-28T12:29:55;99516.59;;;16.49;35.28
50933;BME280;36921;49.006;9.292;2023-02-28T12:32:24;99519.94;;;16.94;35.55
50933;BME280;36921;49.006;9.292;2023-02-28T12:34:58;99509.41;;;16.04;35.24
50933;BME280;36921;49.006;9.292;2023-02-28T12:37:31;99521.44;;;15.06;35.25
50933;BME280;36921;49.006;9.292;2023-02-28T12:40:02;99516.13;;;15.63;36.46
50933;BME280;36921;49.006;9.292;2023-02-28T12:42:34;99510.34;;;15.01;36.67
50933;BME280;36921;49.006;9.292;2023-02-28T12:45:09;99508.91;;;14.92;37.16
50933;BME280;36921;49.006;9.292;2023-02-28T12:47:37;99501.47;;;15.19;36.23
50933;BME280;36921;49.006;9.292;2023-02-28T12:50:06;99501.66;;;14.19;37.45
50933;BME280;36921;49.006;9.292;2023-02-28T12:52:53;99497.03;;;14.66;36.95
50933;BME280;36921;49.006;9.292;2023-02-28T12:55:45;99500.75;;;13.59;38.51
50933;BME280;36921;49.006;9.292;2023-02-28T13:11:50;99496.94;;;13.40;39.56
50933;BME280;36921;49.006;9.292;2023-02-28T13:19:43;99478.38;;;14.63;38.31
50933;BME280;36921;49.006;9.292;2023-02-28T13:22:47;99494.13;;;14.15;37.96
50933;BME280;36921;49.006;9.292;2023-02-28T13:27:48;99499.22;;;12.88;39.15
50933;BME280;36921;49.006;9.292;2023-02-28T13:38:44;99500.50;;;11.58;40.65
50933;BME280;36921;49.006;9.292;2023-02-28T13:46:31;99483.13;;;13.28;39.26
50933;BME280;36921;49.006;9.292;2023-02-28T13:51:52;99474.03;;;13.08;39.44
50933;BME280;36921;49.006;9.292;2023-02-28T13:57:29;99482.97;;;11.97;41.28
50933;BME280;36921;49.006;9.292;2023-02-28T14:05:21;99503.47;;;10.46;43.46
50933;BME280;36921;49.006;9.292;2023-02-28T14:07:53;99494.22;;;10.70;43.80
50933;BME280;36921;49.006;9.292;2023-02-28T14:16:00;99499.44;;;10.57;44.67
50933;BME280;36921;49.006;9.292;2023-02-28T14:18:37;99492.22;;;11.45;43.86
50933;BME280;36921;49.006;9.292;2023-02-28T14:26:19;99502.91;;;10.51;44.08
50933;BME280;36921;49.006;9.292;2023-02-28T14:34:24;99497.78;;;10.56;44.38
50933;BME280;36921;49.006;9.292;2023-02-28T14:36:52;99495.06;;;10.86;43.79
50933;BME280;36921;49.006;9.292;2023-02-28T14:39:25;99491.59;;;10.92;44.24
50933;BME280;36921;49.006;9.292;2023-02-28T14:41:52;99480.31;;;10.29;45.28
50933;BME280;36921;49.006;9.292;2023-02-28T14:44:26;99483.81;;;10.15;45.38
50933;BME280;36921;49.006;9.292;2023-02-28T14:46:55;99503.59;;;9.92;45.57
50933;BME280;36921;49.006;9.292;2023-02-28T14:49:27;99486.09;;;9.42;46.63
50933;BME280;36921;49.006;9.292;2023-02-28T14:52:17;99495.44;;;9.31;46.96
50933;BME280;36921;49.006;9.292;2023-02-28T14:54:44;99496.47;;;9.30;47.45
50933;BME280;36921;49.006;9.292;2023-02-28T14:57:24;99508.63;;;9.26;47.12
50933;BME280;36921;49.006;9.292;2023-02-28T14:59:56;99501.38;;;9.27;48.07
50933;BME280;36921;49.006;9.292;2023-02-28T15:02:24;99503.19;;;9.57;47.09
50933;BME280;36921;49.006;9.292;2023-02-28T15:04:58;99509.22;;;9.91;46.95